Airfield :
LOGIN :

Register | Disclaimer

   EN    FR    IT 

 










Legend :    VFR   Marginal VFR   IFR   Intensive IFR   Very Intensive IFR
Visi :
Ceiling :
>= 8 km
>= 3000ft
5 to 8 km
1000 to 3000 ft
1500m to 5 km
500 to 1000 ft
800 to 1500m
200 to 500 ft
< 800m
< 200 ft
Symbols :   Thunderstorms  Fog  Heavy snow  Heavy precipitations  Wind > 20 kt
SIGMETs :     Misc.  Thunderstorms  Icing  Turbulence  Mountain Waves  Volcanic Ashes







- Airport Elevation : 308 ft
- IATA code : POZ


EPPO - Poznan-Lawica

CURRENT METAR :
  • 121730Z 23014KT CAVOK 04/M02 Q1006 R10/290095

EXPIRED METARs :
  • 121700Z 23013KT CAVOK 04/M01 Q1005 R10/290095
  • 121630Z 24015KT 9999 OVC045 05/M02 Q1005 R10/290095
  • 121600Z 23017KT 9999 OVC043 05/M02 Q1004 R10/290095
  • 121530Z 25017KT 9999 OVC035 05/M02 Q1004 R10/290095
  • 121500Z 24015G26KT 9999 OVC032 05/M01 Q1003 R10/290095

TAF TAF EPPO
Valid from the 12 at 18:00 until the 13 at 18:00 UTC


121730Z 1218/1318 24010KT 9999 BKN040
PROB40
TEMPO 1218/1221 24016G28KT
BECMG 1220/1223 BKN014
PROB40 1223/1307 BKN006 OVC011
BECMG 1308/1310 18010KT SCT023
No reported NOTAMs for that airfield.
1 SIGMET reported for the Warszawa FIR (EPWW) :
 
Severe turbulence
Turbulence
EPWW SIGMET 6 VALID 121615/121915 EPWA
EPWW WARSAW FIR SEV TURB FCST WI N5420 E01940 - N5410 E02210 - N5100 E01800 - N5140 E01610 - N5420 E01940 FL020/100 MOV NE NC AND SEV TURB FCST WI N5050 E01510 - N5420 E01950 - N5420 E02220 - N5000 E01740 - N5050 E01510 FL210/340 MOV NE NC=



MET'MAP, your aeronautical weather chart ! - Copyright ORBIFLY December 2007 - Disclaimer

ORBIFLY MET'MAP TEAM :

Programming & Development : Alexandra Zaïnal
Concept & Development : Baudouin d'Aumeries
Co-Development & Prog : Marc-Olivier Méhu
Technical & hardware support : Manuel Goepfert

Contact : metmap@orbifly.com




SOURCES & CREDITS :

   NOAA